createdAt,value
2019-04-29T00:00:50.486Z,70.60
2019-04-29T00:04:55.439Z,71.60
2019-04-29T00:09:00.357Z,73.04
2019-04-29T00:13:06.943Z,72.67
2019-04-29T00:17:13.468Z,72.57
2019-04-29T00:21:18.822Z,73.02
2019-04-29T00:25:23.776Z,72.11
2019-04-29T00:29:28.653Z,72.48
2019-04-29T00:33:33.543Z,71.72
2019-04-29T00:37:40.070Z,70.36
2019-04-29T00:42:02.797Z,71.22
2019-04-29T00:46:07.941Z,72.20
2019-04-29T00:50:14.027Z,73.16
2019-04-29T00:54:35.565Z,73.62
2019-04-29T00:58:40.446Z,72.47
2019-04-29T01:02:45.339Z,73.18
2019-04-29T01:06:50.216Z,73.48
2019-04-29T01:10:55.164Z,73.17
2019-04-29T01:15:00.054Z,73.80
2019-04-29T01:19:04.931Z,73.99
2019-04-29T01:23:09.816Z,73.34
2019-04-29T01:27:16.339Z,73.89
2019-04-29T01:31:22.855Z,73.57
2019-04-29T01:35:27.745Z,73.93
2019-04-29T01:39:43.134Z,73.31
2019-04-29T01:44:04.817Z,72.05
2019-04-29T01:48:09.704Z,73.37
2019-04-29T01:52:14.587Z,74.10
2019-04-29T01:56:19.532Z,74.54
2019-04-29T02:00:24.423Z,75.28
2019-04-29T02:04:29.309Z,75.64
2019-04-29T02:08:34.198Z,76.21
2019-04-29T02:12:39.090Z,75.79
2019-04-29T02:16:44.936Z,75.62
2019-04-29T02:20:49.828Z,74.71
2019-04-29T02:24:56.353Z,75.17
2019-04-29T02:29:01.243Z,76.48
2019-04-29T02:33:06.138Z,76.83
2019-04-29T02:37:12.658Z,76.32
2019-04-29T02:41:19.187Z,77.12
2019-04-29T02:45:28.582Z,76.69
2019-04-29T02:49:33.462Z,76.13
2019-04-29T02:53:38.345Z,75.10
2019-04-29T02:57:44.860Z,75.14
2019-04-29T03:02:07.550Z,74.82
2019-04-29T03:06:12.512Z,75.15
2019-04-29T03:10:17.483Z,74.50
2019-04-29T03:14:22.360Z,74.50
2019-04-29T03:18:29.148Z,75.29
2019-04-29T03:22:34.408Z,74.60
2019-04-29T03:26:39.288Z,73.90
2019-04-29T03:30:44.175Z,73.61
2019-04-29T03:34:49.068Z,74.69
2019-04-29T03:38:53.950Z,75.94
2019-04-29T03:42:58.837Z,76.30
2019-04-29T03:47:03.719Z,76.38
2019-04-29T03:51:08.608Z,76.51
2019-04-29T03:55:13.560Z,76.98
2019-04-29T03:59:18.442Z,76.33
2019-04-29T04:03:27.629Z,75.91
2019-04-29T04:07:37.149Z,76.31
2019-04-29T04:11:42.032Z,75.43
2019-04-29T04:15:46.924Z,76.27
2019-04-29T04:19:51.811Z,76.58
2019-04-29T04:23:58.221Z,76.63
2019-04-29T04:28:04.301Z,77.15
2019-04-29T04:32:09.189Z,76.04
2019-04-29T04:36:14.075Z,76.58
2019-04-29T04:40:20.664Z,76.59
2019-04-29T04:44:27.195Z,76.68
2019-04-29T04:48:32.079Z,77.31
2019-04-29T04:52:36.970Z,77.21
2019-04-29T04:56:41.859Z,77.09
2019-04-29T05:00:46.745Z,76.85
2019-04-29T05:04:51.618Z,76.86
2019-04-29T05:08:56.508Z,74.96
2019-04-29T05:13:01.390Z,73.71
2019-04-29T05:17:06.279Z,72.28
2019-04-29T05:21:11.176Z,72.50
2019-04-29T05:25:16.055Z,72.85
2019-04-29T05:29:21.114Z,71.70
2019-04-29T05:33:25.997Z,70.00
2019-04-29T05:37:41.504Z,66.54
2019-04-29T05:41:46.389Z,61.36
2019-04-29T05:45:56.047Z,57.78
2019-04-29T05:50:18.484Z,52.26
2019-04-29T05:54:27.024Z,49.97
2019-04-29T05:58:32.989Z,47.76
2019-04-29T06:02:38.878Z,43.64
2019-04-29T06:06:43.917Z,39.81
2019-04-29T06:10:48.811Z,37.05
2019-04-29T06:14:53.708Z,35.63
2019-04-29T06:19:00.313Z,34.25
2019-04-29T06:23:05.199Z,34.05
2019-04-29T06:27:10.091Z,33.61
2019-04-29T06:31:14.987Z,33.61
2019-04-29T06:35:19.879Z,33.26
2019-04-29T06:39:24.779Z,33.31
2019-04-29T06:43:30.692Z,32.96
2019-04-29T06:47:35.657Z,33.22
2019-04-29T06:51:40.542Z,33.73
2019-04-29T06:55:45.440Z,34.40
2019-04-29T06:59:50.338Z,35.34
2019-04-29T07:03:55.769Z,37.14
2019-04-29T07:08:01.829Z,39.63
2019-04-29T07:12:08.265Z,42.63
2019-04-29T07:16:13.298Z,45.07
2019-04-29T07:20:18.190Z,47.63
2019-04-29T07:24:23.088Z,46.77
2019-04-29T07:28:27.987Z,47.06
2019-04-29T07:32:32.876Z,48.00
2019-04-29T07:36:37.785Z,48.96
2019-04-29T07:40:43.495Z,50.08
2019-04-29T07:45:07.122Z,50.01
2019-04-29T07:49:12.675Z,50.83
2019-04-29T07:53:20.951Z,51.56
2019-04-29T07:57:25.187Z,51.80
2019-04-29T08:01:30.097Z,51.59
2019-04-29T08:05:35.133Z,51.73
2019-04-29T08:09:44.280Z,51.45
2019-04-29T08:13:49.231Z,50.43
2019-04-29T08:18:05.932Z,51.77
2019-04-29T08:22:00.712Z,51.13
2019-04-29T08:26:05.607Z,50.70
2019-04-29T08:30:11.306Z,46.36
2019-04-29T08:34:18.683Z,46.71
2019-04-29T08:38:23.690Z,45.25
2019-04-29T08:42:30.226Z,46.45
2019-04-29T08:46:44.362Z,45.26
2019-04-29T08:50:49.294Z,46.48
2019-04-29T08:54:55.276Z,45.86
2019-04-29T08:59:00.768Z,44.84
2019-04-29T09:03:05.665Z,44.38
2019-04-29T09:07:12.643Z,44.42
2019-04-29T09:11:17.181Z,43.13
2019-04-29T09:15:22.120Z,43.38
2019-04-29T09:19:27.022Z,42.77
2019-04-29T09:23:34.395Z,42.40
2019-04-29T09:27:44.987Z,42.58
2019-04-29T09:31:47.529Z,40.34
2019-04-29T09:35:52.421Z,41.10
2019-04-29T09:39:57.320Z,40.21
2019-04-29T09:44:06.279Z,40.21
2019-04-29T09:48:11.158Z,39.75
2019-04-29T09:52:16.056Z,37.76
2019-04-29T09:56:20.952Z,38.34
2019-04-29T10:00:42.478Z,39.28
2019-04-29T10:04:56.551Z,38.16
2019-04-29T10:08:55.598Z,38.33
2019-04-29T10:13:00.498Z,38.96
2019-04-29T10:17:22.084Z,38.75
2019-04-29T10:21:26.980Z,39.41
2019-04-29T10:25:31.884Z,38.86
2019-04-29T10:29:37.452Z,38.24
2019-04-29T10:33:42.350Z,38.23
2019-04-29T10:37:47.238Z,38.90
2019-04-29T10:41:52.841Z,38.77
2019-04-29T10:46:02.058Z,38.99
2019-04-29T10:50:10.564Z,39.08
2019-04-29T10:54:16.194Z,38.76
2019-04-29T10:58:21.883Z,39.10
2019-04-29T11:02:32.370Z,38.57
2019-04-29T11:06:37.259Z,38.16
2019-04-29T11:10:44.159Z,37.65
2019-04-29T11:14:49.124Z,38.27
2019-04-29T11:18:55.083Z,38.34
2019-04-29T11:23:18.559Z,37.91
2019-04-29T11:27:27.778Z,37.79
2019-04-29T11:31:34.536Z,37.89
2019-04-29T11:35:46.766Z,38.05
2019-04-29T11:39:51.847Z,37.92
2019-04-29T11:43:56.712Z,36.53
2019-04-29T11:48:01.601Z,37.60
2019-04-29T11:52:09.835Z,37.39
2019-04-29T11:56:13.093Z,37.76
2019-04-29T12:00:36.920Z,38.05
2019-04-29T12:04:52.793Z,37.68
2019-04-29T12:08:57.690Z,38.14
2019-04-29T12:13:04.228Z,38.35
2019-04-29T12:17:10.839Z,38.50
2019-04-29T12:21:20.021Z,39.58
2019-04-29T12:25:27.641Z,39.62
2019-04-29T12:29:31.576Z,38.25
2019-04-29T12:33:40.771Z,37.72
2019-04-29T12:38:05.936Z,38.10
2019-04-29T12:42:13.781Z,38.38
2019-04-29T12:46:23.247Z,37.97
2019-04-29T12:50:28.140Z,37.98
2019-04-29T12:54:33.044Z,37.99
2019-04-29T12:58:37.944Z,38.61
2019-04-29T13:03:00.164Z,38.67
2019-04-29T13:07:09.931Z,38.01
2019-04-29T13:11:19.147Z,37.60
2019-04-29T13:15:29.223Z,37.40
2019-04-29T13:19:35.739Z,37.19
2019-04-29T13:23:55.615Z,37.56
2019-04-29T13:27:48.903Z,38.98
2019-04-29T13:31:53.799Z,38.93
2019-04-29T13:35:58.698Z,38.99
2019-04-29T13:40:05.524Z,40.36
2019-04-29T13:44:10.504Z,41.15
2019-04-29T13:48:25.965Z,41.29
2019-04-29T13:52:30.870Z,41.52
2019-04-29T13:56:54.797Z,41.36
2019-04-29T14:00:46.973Z,41.30
2019-04-29T14:05:02.368Z,41.06
2019-04-29T14:09:09.071Z,40.42
2019-04-29T14:13:17.610Z,40.20
2019-04-29T14:17:26.585Z,39.65
2019-04-29T14:21:30.180Z,39.47
2019-04-29T14:25:35.414Z,42.60
2019-04-29T14:29:40.317Z,44.58
2019-04-29T14:33:49.284Z,44.75
2019-04-29T14:37:55.646Z,44.27
2019-04-29T14:42:02.423Z,44.32
2019-04-29T14:46:16.107Z,44.13
2019-04-29T14:50:21.409Z,44.43
2019-04-29T14:54:26.292Z,43.65
2019-04-29T14:58:31.200Z,43.10
2019-04-29T15:02:36.170Z,42.94
2019-04-29T15:06:41.119Z,43.28
2019-04-29T15:10:47.879Z,43.28
2019-04-29T15:15:10.892Z,42.74
2019-04-29T15:19:34.011Z,42.52
2019-04-29T15:23:38.908Z,43.95
2019-04-29T15:27:43.804Z,45.00
2019-04-29T15:31:49.049Z,44.24
2019-04-29T15:35:54.856Z,45.33
2019-04-29T15:40:00.746Z,45.80
2019-04-29T15:44:08.133Z,47.06
2019-04-29T15:48:12.394Z,48.14
2019-04-29T15:52:21.018Z,48.53
2019-04-29T15:56:28.962Z,49.71
2019-04-29T16:00:36.637Z,49.83
2019-04-29T16:04:54.950Z,52.45
2019-04-29T16:09:01.484Z,49.91
2019-04-29T16:13:09.622Z,50.42
2019-04-29T16:17:14.521Z,50.13
2019-04-29T16:21:19.479Z,50.86
2019-04-29T16:25:24.375Z,51.53
2019-04-29T16:29:29.274Z,52.60
2019-04-29T16:33:34.169Z,52.76
2019-04-29T16:37:39.054Z,53.55
2019-04-29T16:41:45.598Z,55.19
2019-04-29T16:46:10.205Z,55.91
2019-04-29T16:50:15.168Z,56.73
2019-04-29T16:54:27.715Z,58.71
2019-04-29T16:58:26.661Z,59.18
2019-04-29T17:02:31.625Z,59.68
2019-04-29T17:06:41.665Z,61.31
2019-04-29T17:11:01.340Z,61.02
2019-04-29T17:15:23.825Z,61.72
2019-04-29T17:19:14.107Z,62.00
2019-04-29T17:23:24.189Z,62.16
2019-04-29T17:27:34.918Z,62.10
2019-04-29T17:31:57.257Z,62.26
2019-04-29T17:36:01.259Z,62.65
2019-04-29T17:40:07.677Z,62.49
2019-04-29T17:44:14.491Z,62.93
2019-04-29T17:48:37.387Z,63.44
2019-04-29T17:52:42.288Z,64.31
2019-04-29T17:56:48.830Z,64.57
2019-04-29T18:00:59.547Z,64.69
2019-04-29T18:05:13.560Z,64.84
2019-04-29T18:09:36.611Z,64.78
2019-04-29T18:13:41.757Z,64.88
2019-04-29T18:17:47.308Z,65.58
2019-04-29T18:22:10.129Z,65.68
2019-04-29T18:26:16.676Z,66.30
2019-04-29T18:30:33.451Z,67.06
2019-04-29T18:34:33.680Z,68.35
2019-04-29T18:38:36.382Z,69.93
2019-04-29T18:42:43.307Z,70.61
2019-04-29T18:46:53.581Z,71.26
2019-04-29T18:50:56.890Z,71.82
2019-04-29T18:55:01.125Z,72.53
2019-04-29T18:59:06.088Z,73.67
2019-04-29T19:03:12.153Z,74.39
2019-04-29T19:07:17.122Z,74.52
2019-04-29T19:11:31.935Z,75.08
2019-04-29T19:15:28.738Z,75.82
2019-04-29T19:19:35.939Z,76.13
2019-04-29T19:23:40.261Z,77.45
2019-04-29T19:27:45.489Z,77.05
2019-04-29T19:31:50.558Z,77.72
2019-04-29T19:35:55.527Z,77.70
2019-04-29T19:40:00.427Z,78.18
2019-04-29T19:44:07.872Z,78.49
2019-04-29T19:48:12.273Z,79.21
2019-04-29T19:52:27.860Z,79.17
2019-04-29T19:56:26.506Z,79.73
2019-04-29T20:00:31.790Z,80.30
2019-04-29T20:04:41.744Z,80.40
2019-04-29T20:08:54.005Z,80.58
2019-04-29T20:12:55.466Z,80.95
2019-04-29T20:17:12.462Z,81.39
2019-04-29T20:21:24.802Z,81.93
2019-04-29T20:25:29.639Z,81.91
2019-04-29T20:29:33.935Z,82.83
2019-04-29T20:33:35.785Z,82.97
2019-04-29T20:37:43.157Z,82.86
2019-04-29T20:41:49.051Z,83.40
2019-04-29T20:45:57.916Z,83.38
2019-04-29T20:50:00.721Z,83.67
2019-04-29T20:54:11.812Z,83.65
2019-04-29T20:58:15.574Z,83.75
2019-04-29T21:02:31.244Z,83.95
2019-04-29T21:06:27.297Z,84.03
2019-04-29T21:10:32.560Z,84.17
2019-04-29T21:14:39.097Z,84.18
2019-04-29T21:18:45.491Z,84.23
2019-04-29T21:22:52.478Z,84.43
2019-04-29T21:26:57.457Z,84.53
2019-04-29T21:31:02.328Z,84.56
2019-04-29T21:35:27.015Z,84.40
2019-04-29T21:39:36.489Z,83.92
2019-04-29T21:43:46.952Z,83.91
2019-04-29T21:47:53.480Z,83.94
2019-04-29T21:51:57.801Z,84.04
2019-04-29T21:56:06.358Z,84.12
2019-04-29T22:00:11.221Z,84.11
2019-04-29T22:04:16.977Z,84.14
2019-04-29T22:08:27.089Z,84.10
2019-04-29T22:12:28.506Z,83.57
2019-04-29T22:16:35.621Z,83.58
2019-04-29T22:20:42.101Z,83.63
2019-04-29T22:24:46.866Z,83.99
2019-04-29T22:28:53.217Z,83.62
2019-04-29T22:32:59.845Z,83.80
2019-04-29T22:37:05.517Z,83.78
2019-04-29T22:41:18.749Z,83.42
2019-04-29T22:45:18.971Z,83.03
2019-04-29T22:49:27.489Z,83.21
2019-04-29T22:53:30.451Z,83.03
2019-04-29T22:57:35.346Z,83.16
2019-04-29T23:01:42.275Z,83.30
2019-04-29T23:05:46.829Z,83.25
2019-04-29T23:09:51.723Z,83.17
2019-04-29T23:13:56.616Z,83.69
2019-04-29T23:18:01.520Z,83.66
2019-04-29T23:22:10.651Z,83.84
2019-04-29T23:26:16.939Z,84.04
2019-04-29T23:30:23.474Z,84.38
2019-04-29T23:34:29.503Z,84.45
2019-04-29T23:38:34.587Z,84.39
2019-04-29T23:42:39.420Z,84.19
2019-04-29T23:46:44.312Z,84.51
2019-04-29T23:50:49.696Z,84.05
2019-04-29T23:54:54.665Z,83.87
2019-04-29T23:59:19.012Z,84.11
